sensor_id;sensor_type;location;lat;lon;timestamp;pressure;altitude;pressure_sealevel;temperature;humidity
42003;BME280;27693;50.506;30.832;2023-06-14T00:00:42;99655.76;;;14.37;78.76
42003;BME280;27693;50.506;30.832;2023-06-14T00:01:45;99652.77;;;14.29;79.05
42003;BME280;27693;50.506;30.832;2023-06-14T00:02:50;99652.77;;;14.29;79.05
42003;BME280;27693;50.506;30.832;2023-06-14T00:03:53;99651.91;;;14.29;79.30
42003;BME280;27693;50.506;30.832;2023-06-14T00:04:56;99652.28;;;14.37;79.35
42003;BME280;27693;50.506;30.832;2023-06-14T00:05:58;99650.20;;;14.42;79.24
42003;BME280;27693;50.506;30.832;2023-06-14T00:07:01;99648.05;;;14.49;79.12
42003;BME280;27693;50.506;30.832;2023-06-14T00:08:05;99651.50;;;14.49;78.43
42003;BME280;27693;50.506;30.832;2023-06-14T00:09:10;99650.47;;;14.52;78.13
42003;BME280;27693;50.506;30.832;2023-06-14T00:10:15;99654.58;;;14.56;77.95
42003;BME280;27693;50.506;30.832;2023-06-14T00:11:18;99657.70;;;14.48;77.98
42003;BME280;27693;50.506;30.832;2023-06-14T00:12:20;99649.27;;;14.43;78.10
42003;BME280;27693;50.506;30.832;2023-06-14T00:13:23;99654.07;;;14.36;78.60
42003;BME280;27693;50.506;30.832;2023-06-14T00:14:25;99645.94;;;14.41;78.87
42003;BME280;27693;50.506;30.832;2023-06-14T00:15:27;99654.33;;;14.46;78.87
42003;BME280;27693;50.506;30.832;2023-06-14T00:16:30;99650.39;;;14.53;78.87
42003;BME280;27693;50.506;30.832;2023-06-14T00:17:35;99653.72;;;14.56;78.45
42003;BME280;27693;50.506;30.832;2023-06-14T00:18:38;99647.48;;;14.58;78.25
42003;BME280;27693;50.506;30.832;2023-06-14T00:19:41;99647.48;;;14.58;78.25
42003;BME280;27693;50.506;30.832;2023-06-14T00:20:43;99653.55;;;14.59;78.08
42003;BME280;27693;50.506;30.832;2023-06-14T00:21:46;99654.30;;;14.61;78.21
42003;BME280;27693;50.506;30.832;2023-06-14T00:22:49;99647.02;;;14.66;78.29
42003;BME280;27693;50.506;30.832;2023-06-14T00:23:52;99651.20;;;14.68;78.19
42003;BME280;27693;50.506;30.832;2023-06-14T00:24:54;99656.70;;;14.64;77.99
42003;BME280;27693;50.506;30.832;2023-06-14T00:25:58;99650.03;;;14.45;78.75
42003;BME280;27693;50.506;30.832;2023-06-14T00:27:01;99651.71;;;14.46;78.90
42003;BME280;27693;50.506;30.832;2023-06-14T00:28:04;99653.08;;;14.52;79.09
42003;BME280;27693;50.506;30.832;2023-06-14T00:29:07;99648.49;;;14.56;78.69
42003;BME280;27693;50.506;30.832;2023-06-14T00:30:11;99648.49;;;14.56;78.69
42003;BME280;27693;50.506;30.832;2023-06-14T00:31:14;99642.25;;;14.58;79.00
42003;BME280;27693;50.506;30.832;2023-06-14T00:32:17;99640.56;;;14.57;78.81
42003;BME280;27693;50.506;30.832;2023-06-14T00:33:20;99642.14;;;14.60;78.84
42003;BME280;27693;50.506;30.832;2023-06-14T00:34:23;99641.10;;;14.62;78.76
42003;BME280;27693;50.506;30.832;2023-06-14T00:35:26;99638.33;;;14.65;78.64
42003;BME280;27693;50.506;30.832;2023-06-14T00:36:28;99644.00;;;14.72;78.46
42003;BME280;27693;50.506;30.832;2023-06-14T00:37:31;99646.51;;;14.74;78.28
42003;BME280;27693;50.506;30.832;2023-06-14T00:38:33;99651.56;;;14.77;78.30
42003;BME280;27693;50.506;30.832;2023-06-14T00:39:36;99650.70;;;14.76;78.16
42003;BME280;27693;50.506;30.832;2023-06-14T00:40:38;99651.34;;;14.80;78.18
42003;BME280;27693;50.506;30.832;2023-06-14T00:41:41;99651.05;;;14.84;78.01
42003;BME280;27693;50.506;30.832;2023-06-14T00:42:43;99651.59;;;14.90;77.82
42003;BME280;27693;50.506;30.832;2023-06-14T00:43:46;99637.78;;;14.88;77.66
42003;BME280;27693;50.506;30.832;2023-06-14T00:44:50;99637.78;;;14.88;77.74
42003;BME280;27693;50.506;30.832;2023-06-14T00:45:53;99643.84;;;14.88;77.87
42003;BME280;27693;50.506;30.832;2023-06-14T00:46:55;99640.92;;;14.93;77.85
42003;BME280;27693;50.506;30.832;2023-06-14T00:47:58;99641.56;;;14.96;77.58
42003;BME280;27693;50.506;30.832;2023-06-14T00:49:01;99646.91;;;14.95;77.48
42003;BME280;27693;50.506;30.832;2023-06-14T00:50:07;99649.53;;;14.95;77.52
42003;BME280;27693;50.506;30.832;2023-06-14T00:51:10;99651.94;;;14.98;77.50
42003;BME280;27693;50.506;30.832;2023-06-14T00:52:14;99647.63;;;14.97;77.45
42003;BME280;27693;50.506;30.832;2023-06-14T00:53:17;99643.25;;;14.97;77.54
42003;BME280;27693;50.506;30.832;2023-06-14T00:54:20;99635.28;;;14.99;77.52
42003;BME280;27693;50.506;30.832;2023-06-14T00:55:22;99641.38;;;14.99;77.61
42003;BME280;27693;50.506;30.832;2023-06-14T00:56:26;99638.84;;;14.98;77.59
42003;BME280;27693;50.506;30.832;2023-06-14T00:57:29;99643.14;;;14.99;77.78
42003;BME280;27693;50.506;30.832;2023-06-14T00:58:32;99637.72;;;15.02;77.62
42003;BME280;27693;50.506;30.832;2023-06-14T01:00:49;99643.91;;;15.14;77.55
42003;BME280;27693;50.506;30.832;2023-06-14T01:01:53;99647.98;;;15.05;77.63
42003;BME280;27693;50.506;30.832;2023-06-14T01:02:55;99648.91;;;15.04;77.50
42003;BME280;27693;50.506;30.832;2023-06-14T01:03:59;99647.85;;;14.94;77.33
42003;BME280;27693;50.506;30.832;2023-06-14T01:05:03;99658.52;;;14.91;77.55
42003;BME280;27693;50.506;30.832;2023-06-14T01:11:50;99651.68;;;14.61;79.47
42003;BME280;27693;50.506;30.832;2023-06-14T01:13:12;99646.52;;;14.59;79.29
42003;BME280;27693;50.506;30.832;2023-06-14T01:14:16;99646.73;;;14.56;79.39
42003;BME280;27693;50.506;30.832;2023-06-14T01:15:21;99644.94;;;14.57;79.44
42003;BME280;27693;50.506;30.832;2023-06-14T01:16:24;99642.74;;;14.36;80.50
42003;BME280;27693;50.506;30.832;2023-06-14T01:17:29;99647.98;;;14.36;80.59
42003;BME280;27693;50.506;30.832;2023-06-14T01:18:34;99647.52;;;14.44;80.69
42003;BME280;27693;50.506;30.832;2023-06-14T01:19:37;99647.23;;;14.48;80.65
42003;BME280;27693;50.506;30.832;2023-06-14T01:20:41;99648.49;;;14.56;80.53
42003;BME280;27693;50.506;30.832;2023-06-14T01:21:43;99647.16;;;14.63;80.44
42003;BME280;27693;50.506;30.832;2023-06-14T01:22:52;99650.53;;;14.65;80.23
42003;BME280;27693;50.506;30.832;2023-06-14T01:23:55;99649.92;;;14.47;80.51
42003;BME280;27693;50.506;30.832;2023-06-14T01:25:00;99647.02;;;14.51;80.59
42003;BME280;27693;50.506;30.832;2023-06-14T01:26:02;99651.97;;;14.56;80.53
42003;BME280;27693;50.506;30.832;2023-06-14T01:27:08;99655.02;;;14.63;80.44
42003;BME280;27693;50.506;30.832;2023-06-14T01:28:12;99653.72;;;14.70;80.36
42003;BME280;27693;50.506;30.832;2023-06-14T01:29:16;99649.23;;;14.72;80.14
42003;BME280;27693;50.506;30.832;2023-06-14T01:30:21;99652.39;;;14.77;80.00
42003;BME280;27693;50.506;30.832;2023-06-14T01:31:25;99652.78;;;14.71;79.55
42003;BME280;27693;50.506;30.832;2023-06-14T01:32:29;99649.52;;;14.67;79.62
42003;BME280;27693;50.506;30.832;2023-06-14T01:33:33;99646.72;;;14.71;79.71
42003;BME280;27693;50.506;30.832;2023-06-14T01:34:37;99638.66;;;14.59;79.78
42003;BME280;27693;50.506;30.832;2023-06-14T01:35:43;99639.70;;;14.57;79.82
42003;BME280;27693;50.506;30.832;2023-06-14T01:36:47;99638.23;;;14.52;80.23
42003;BME280;27693;50.506;30.832;2023-06-14T01:37:52;99632.34;;;14.49;80.05
42003;BME280;27693;50.506;30.832;2023-06-14T01:38:55;99636.76;;;14.48;79.69
42003;BME280;27693;50.506;30.832;2023-06-14T01:39:58;99639.27;;;14.50;79.87
42003;BME280;27693;50.506;30.832;2023-06-14T01:41:01;99628.29;;;14.30;80.83
42003;BME280;27693;50.506;30.832;2023-06-14T01:42:06;99632.56;;;14.31;81.12
42003;BME280;27693;50.506;30.832;2023-06-14T01:43:10;99627.43;;;14.30;81.19
42003;BME280;27693;50.506;30.832;2023-06-14T01:44:14;99626.89;;;14.25;81.45
42003;BME280;27693;50.506;30.832;2023-06-14T01:45:19;99627.81;;;14.24;81.31
42003;BME280;27693;50.506;30.832;2023-06-14T01:46:23;99625.75;;;14.29;81.57
42003;BME280;27693;50.506;30.832;2023-06-14T01:47:26;99626.71;;;14.28;81.44
42003;BME280;27693;50.506;30.832;2023-06-14T01:48:29;99631.45;;;14.35;81.61
42003;BME280;27693;50.506;30.832;2023-06-14T01:49:37;99629.50;;;14.25;81.80
42003;BME280;27693;50.506;30.832;2023-06-14T01:50:37;99631.37;;;14.22;81.67
42003;BME280;27693;50.506;30.832;2023-06-14T01:51:40;99631.19;;;14.26;81.54
42003;BME280;27693;50.506;30.832;2023-06-14T01:52:44;99626.50;;;14.31;81.73
42003;BME280;27693;50.506;30.832;2023-06-14T01:53:47;99630.59;;;14.35;81.76
42003;BME280;27693;50.506;30.832;2023-06-14T01:54:51;99626.86;;;14.39;81.43
42003;BME280;27693;50.506;30.832;2023-06-14T01:55:53;99629.61;;;14.23;81.56
42003;BME280;27693;50.506;30.832;2023-06-14T01:56:57;99625.95;;;14.26;81.71
42003;BME280;27693;50.506;30.832;2023-06-14T01:57:59;99630.92;;;14.16;81.68
42003;BME280;27693;50.506;30.832;2023-06-14T01:59:01;99629.73;;;13.93;83.12
42003;BME280;27693;50.506;30.832;2023-06-14T02:00:06;99624.40;;;13.94;83.30
42003;BME280;27693;50.506;30.832;2023-06-14T02:01:12;99625.60;;;14.03;83.36
42003;BME280;27693;50.506;30.832;2023-06-14T02:02:15;99619.81;;;14.12;83.27
42003;BME280;27693;50.506;30.832;2023-06-14T02:03:18;99624.66;;;14.18;82.89
42003;BME280;27693;50.506;30.832;2023-06-14T02:04:21;99625.95;;;14.26;82.63
42003;BME280;27693;50.506;30.832;2023-06-14T02:05:24;99631.45;;;14.35;82.35
42003;BME280;27693;50.506;30.832;2023-06-14T02:06:27;99627.27;;;14.18;82.17
42003;BME280;27693;50.506;30.832;2023-06-14T02:07:30;99621.28;;;14.16;82.53
42003;BME280;27693;50.506;30.832;2023-06-14T02:08:32;99626.99;;;14.23;82.54
42003;BME280;27693;50.506;30.832;2023-06-14T02:09:35;99623.12;;;14.29;82.27
42003;BME280;27693;50.506;30.832;2023-06-14T02:10:38;99623.70;;;14.34;82.18
42003;BME280;27693;50.506;30.832;2023-06-14T02:11:41;99623.31;;;14.40;81.99
42003;BME280;27693;50.506;30.832;2023-06-14T02:12:44;99622.48;;;14.25;81.93
42003;BME280;27693;50.506;30.832;2023-06-14T02:13:46;99629.12;;;14.31;81.96
42003;BME280;27693;50.506;30.832;2023-06-14T02:14:49;99626.86;;;14.39;82.12
42003;BME280;27693;50.506;30.832;2023-06-14T02:15:52;99630.02;;;14.44;82.03
42003;BME280;27693;50.506;30.832;2023-06-14T02:16:57;99628.69;;;14.51;81.82
42003;BME280;27693;50.506;30.832;2023-06-14T02:18:04;99636.16;;;14.58;81.62
42003;BME280;27693;50.506;30.832;2023-06-14T02:19:08;99634.39;;;14.58;81.06
42003;BME280;27693;50.506;30.832;2023-06-14T02:20:12;99638.02;;;14.56;80.85
42003;BME280;27693;50.506;30.832;2023-06-14T02:21:15;99636.69;;;14.63;80.86
42003;BME280;27693;50.506;30.832;2023-06-14T02:22:19;99633.92;;;14.66;80.86
42003;BME280;27693;50.506;30.832;2023-06-14T02:23:23;99640.63;;;14.70;80.65
42003;BME280;27693;50.506;30.832;2023-06-14T02:24:26;99634.93;;;14.63;80.12
42003;BME280;27693;50.506;30.832;2023-06-14T02:25:29;99636.54;;;14.66;80.12
42003;BME280;27693;50.506;30.832;2023-06-14T02:26:32;99631.38;;;14.64;80.40
42003;BME280;27693;50.506;30.832;2023-06-14T02:27:35;99631.38;;;14.64;80.40
42003;BME280;27693;50.506;30.832;2023-06-14T02:28:38;99633.52;;;14.72;80.38
42003;BME280;27693;50.506;30.832;2023-06-14T02:29:44;99641.27;;;14.74;80.23
42003;BME280;27693;50.506;30.832;2023-06-14T02:30:46;99644.83;;;14.73;79.80
42003;BME280;27693;50.506;30.832;2023-06-14T02:31:49;99643.81;;;14.75;79.70
42003;BME280;27693;50.506;30.832;2023-06-14T02:32:54;99641.91;;;14.77;79.73
42003;BME280;27693;50.506;30.832;2023-06-14T02:33:56;99645.10;;;14.82;79.72
42003;BME280;27693;50.506;30.832;2023-06-14T02:34:58;99638.17;;;14.81;79.61
42003;BME280;27693;50.506;30.832;2023-06-14T02:36:01;99642.56;;;14.81;79.35
42003;BME280;27693;50.506;30.832;2023-06-14T02:37:05;99644.88;;;14.85;79.41
42003;BME280;27693;50.506;30.832;2023-06-14T02:38:07;99637.78;;;14.88;79.43
42003;BME280;27693;50.506;30.832;2023-06-14T02:39:09;99642.08;;;14.89;79.42
42003;BME280;27693;50.506;30.832;2023-06-14T02:40:13;99639.64;;;14.85;79.20
42003;BME280;27693;50.506;30.832;2023-06-14T02:41:17;99640.05;;;14.79;78.55
42003;BME280;27693;50.506;30.832;2023-06-14T02:42:19;99639.41;;;14.76;78.59
42003;BME280;27693;50.506;30.832;2023-06-14T02:43:22;99639.41;;;14.76;78.71
42003;BME280;27693;50.506;30.832;2023-06-14T02:44:25;99649.59;;;14.80;79.11
42003;BME280;27693;50.506;30.832;2023-06-14T02:45:29;99641.52;;;14.83;79.31
42003;BME280;27693;50.506;30.832;2023-06-14T02:46:32;99637.56;;;14.91;79.36
42003;BME280;27693;50.506;30.832;2023-06-14T02:47:35;99642.61;;;14.94;79.31
42003;BME280;27693;50.506;30.832;2023-06-14T02:48:38;99647.63;;;14.97;79.29
42003;BME280;27693;50.506;30.832;2023-06-14T02:49:40;99659.61;;;15.01;79.19
42003;BME280;27693;50.506;30.832;2023-06-14T02:50:43;99645.58;;;15.02;79.08
42003;BME280;27693;50.506;30.832;2023-06-14T02:51:45;99643.48;;;15.07;78.89
42003;BME280;27693;50.506;30.832;2023-06-14T02:52:47;99656.47;;;15.09;78.74
42003;BME280;27693;50.506;30.832;2023-06-14T02:53:50;99650.36;;;14.95;78.41
42003;BME280;27693;50.506;30.832;2023-06-14T02:54:53;99651.99;;;14.83;79.03
42003;BME280;27693;50.506;30.832;2023-06-14T02:55:56;99649.48;;;14.82;78.87
42003;BME280;27693;50.506;30.832;2023-06-14T02:56:59;99648.49;;;14.56;79.92
42003;BME280;27693;50.506;30.832;2023-06-14T02:58:03;99651.19;;;14.27;81.44
42003;BME280;27693;50.506;30.832;2023-06-14T02:59:05;99654.37;;;14.17;82.21
42003;BME280;27693;50.506;30.832;2023-06-14T03:00:09;99650.07;;;14.02;83.15
42003;BME280;27693;50.506;30.832;2023-06-14T03:01:14;99651.11;;;13.99;83.87
42003;BME280;27693;50.506;30.832;2023-06-14T03:02:17;99656.98;;;14.03;83.97
42003;BME280;27693;50.506;30.832;2023-06-14T03:03:20;99660.16;;;14.08;83.93
42003;BME280;27693;50.506;30.832;2023-06-14T03:04:25;99662.59;;;14.11;83.85
42003;BME280;27693;50.506;30.832;2023-06-14T03:05:29;99662.77;;;13.94;84.84
42003;BME280;27693;50.506;30.832;2023-06-14T03:06:31;99656.44;;;13.98;85.03
42003;BME280;27693;50.506;30.832;2023-06-14T03:07:34;99665.21;;;14.11;84.99
42003;BME280;27693;50.506;30.832;2023-06-14T03:08:38;99664.45;;;14.24;84.74
42003;BME280;27693;50.506;30.832;2023-06-14T03:09:42;99667.05;;;14.38;84.29
42003;BME280;27693;50.506;30.832;2023-06-14T03:10:46;99672.83;;;14.43;83.52
42003;BME280;27693;50.506;30.832;2023-06-14T03:11:50;99659.35;;;14.49;83.15
42003;BME280;27693;50.506;30.832;2023-06-14T03:12:52;99660.00;;;14.53;82.96
42003;BME280;27693;50.506;30.832;2023-06-14T03:13:55;99666.45;;;14.62;82.90
42003;BME280;27693;50.506;30.832;2023-06-14T03:15:00;99665.13;;;14.69;82.71
42003;BME280;27693;50.506;30.832;2023-06-14T03:16:07;99664.56;;;14.64;82.63
42003;BME280;27693;50.506;30.832;2023-06-14T03:17:12;99674.59;;;14.72;82.46
42003;BME280;27693;50.506;30.832;2023-06-14T03:18:14;99663.80;;;14.76;82.23
42003;BME280;27693;50.506;30.832;2023-06-14T03:19:17;99671.08;;;14.85;82.14
42003;BME280;27693;50.506;30.832;2023-06-14T03:20:20;99668.80;;;14.94;81.86
42003;BME280;27693;50.506;30.832;2023-06-14T03:21:23;99670.84;;;15.03;81.44
42003;BME280;27693;50.506;30.832;2023-06-14T03:22:27;99674.05;;;14.94;81.12
42003;BME280;27693;50.506;30.832;2023-06-14T03:23:30;99667.23;;;14.91;81.48
42003;BME280;27693;50.506;30.832;2023-06-14T03:24:33;99670.89;;;14.89;81.22
42003;BME280;27693;50.506;30.832;2023-06-14T03:25:38;99667.38;;;14.75;81.47
42003;BME280;27693;50.506;30.832;2023-06-14T03:26:42;99672.63;;;14.75;81.91
42003;BME280;27693;50.506;30.832;2023-06-14T03:27:46;99666.23;;;14.79;81.96
42003;BME280;27693;50.506;30.832;2023-06-14T03:28:49;99666.23;;;14.79;82.12
42003;BME280;27693;50.506;30.832;2023-06-14T03:29:53;99653.00;;;14.68;82.32
42003;BME280;27693;50.506;30.832;2023-06-14T03:30:58;99653.00;;;14.68;82.32
42003;BME280;27693;50.506;30.832;2023-06-14T03:32:03;99662.69;;;14.80;82.44
42003;BME280;27693;50.506;30.832;2023-06-14T03:33:10;99666.59;;;14.88;82.33
42003;BME280;27693;50.506;30.832;2023-06-14T03:34:14;99666.45;;;14.62;83.04
42003;BME280;27693;50.506;30.832;2023-06-14T03:35:17;99667.78;;;14.54;83.78
42003;BME280;27693;50.506;30.832;2023-06-14T03:36:21;99669.43;;;14.56;84.13
42003;BME280;27693;50.506;30.832;2023-06-14T03:37:23;99667.17;;;14.64;84.13
42003;BME280;27693;50.506;30.832;2023-06-14T03:38:26;99673.66;;;14.58;84.33
42003;BME280;27693;50.506;30.832;2023-06-14T03:39:28;99665.23;;;14.53;84.65
42003;BME280;27693;50.506;30.832;2023-06-14T03:40:31;99667.39;;;14.61;84.63
42003;BME280;27693;50.506;30.832;2023-06-14T03:41:38;99665.63;;;14.47;85.14
42003;BME280;27693;50.506;30.832;2023-06-14T03:42:41;99663.38;;;14.55;85.06
42003;BME280;27693;50.506;30.832;2023-06-14T03:43:43;99668.86;;;14.65;84.97
42003;BME280;27693;50.506;30.832;2023-06-14T03:44:45;99660.11;;;14.51;85.19
42003;BME280;27693;50.506;30.832;2023-06-14T03:45:49;99661.64;;;14.41;85.89
42003;BME280;27693;50.506;30.832;2023-06-14T03:46:53;99663.50;;;14.39;85.91
42003;BME280;27693;50.506;30.832;2023-06-14T03:47:56;99664.44;;;14.38;86.45
42003;BME280;27693;50.506;30.832;2023-06-14T03:48:59;99667.52;;;14.45;86.52
42003;BME280;27693;50.506;30.832;2023-06-14T03:50:04;99668.50;;;14.57;86.10
42003;BME280;27693;50.506;30.832;2023-06-14T03:51:08;99663.63;;;14.65;85.89
42003;BME280;27693;50.506;30.832;2023-06-14T03:52:13;99671.01;;;14.73;85.48
42003;BME280;27693;50.506;30.832;2023-06-14T03:53:16;99667.92;;;14.80;85.45
42003;BME280;27693;50.506;30.832;2023-06-14T03:54:22;99665.48;;;14.77;85.30
42003;BME280;27693;50.506;30.832;2023-06-14T03:55:26;99667.52;;;14.87;85.15
42003;BME280;27693;50.506;30.832;2023-06-14T03:56:31;99666.23;;;14.79;85.03
42003;BME280;27693;50.506;30.832;2023-06-14T03:57:34;99668.27;;;14.89;84.90
42003;BME280;27693;50.506;30.832;2023-06-14T03:58:37;99658.52;;;14.91;84.74
42003;BME280;27693;50.506;30.832;2023-06-14T03:59:41;99671.31;;;14.95;84.31
42003;BME280;27693;50.506;30.832;2023-06-14T04:00:45;99664.80;;;14.88;84.47
42003;BME280;27693;50.506;30.832;2023-06-14T04:01:47;99672.36;;;14.93;84.61
42003;BME280;27693;50.506;30.832;2023-06-14T04:02:51;99667.66;;;14.98;84.48
42003;BME280;27693;50.506;30.832;2023-06-14T04:03:56;99665.14;;;14.96;84.39
42003;BME280;27693;50.506;30.832;2023-06-14T04:05:01;99659.61;;;15.01;84.45
42003;BME280;27693;50.506;30.832;2023-06-14T04:06:04;99665.89;;;14.98;84.33
42003;BME280;27693;50.506;30.832;2023-06-14T04:07:07;99657.52;;;15.06;84.22
42003;BME280;27693;50.506;30.832;2023-06-14T04:08:11;99658.80;;;15.13;83.96
42003;BME280;27693;50.506;30.832;2023-06-14T04:09:15;99649.59;;;15.21;83.74
42003;BME280;27693;50.506;30.832;2023-06-14T04:10:19;99654.83;;;15.21;84.57
42003;BME280;27693;50.506;30.832;2023-06-14T04:11:22;99654.20;;;15.17;83.99
42003;BME280;27693;50.506;30.832;2023-06-14T04:12:25;99649.59;;;15.21;84.85
42003;BME280;27693;50.506;30.832;2023-06-14T04:13:28;99655.58;;;15.23;84.24
42003;BME280;27693;50.506;30.832;2023-06-14T04:14:30;99655.25;;;15.27;83.71
42003;BME280;27693;50.506;30.832;2023-06-14T04:15:35;99656.70;;;15.18;83.55
42003;BME280;27693;50.506;30.832;2023-06-14T04:16:40;99650.41;;;15.08;84.13
42003;BME280;27693;50.506;30.832;2023-06-14T04:17:43;99655.65;;;15.08;84.31
42003;BME280;27693;50.506;30.832;2023-06-14T04:18:46;99658.67;;;15.02;84.37
42003;BME280;27693;50.506;30.832;2023-06-14T04:19:50;99659.95;;;15.09;84.08
42003;BME280;27693;50.506;30.832;2023-06-14T04:20:53;99652.50;;;15.03;84.10
42003;BME280;27693;50.506;30.832;2023-06-14T04:21:58;99657.73;;;15.03;84.40
42003;BME280;27693;50.506;30.832;2023-06-14T04:23:17;99656.77;;;15.04;84.78
42003;BME280;27693;50.506;30.832;2023-06-14T04:24:21;99652.28;;;15.06;84.81
42003;BME280;27693;50.506;30.832;2023-06-14T04:25:25;99651.88;;;15.12;84.81
42003;BME280;27693;50.506;30.832;2023-06-14T04:26:30;99655.58;;;15.23;84.63
42003;BME280;27693;50.506;30.832;2023-06-14T04:27:35;99657.56;;;15.19;84.69
42003;BME280;27693;50.506;30.832;2023-06-14T04:28:39;99665.95;;;15.24;84.46
42003;BME280;27693;50.506;30.832;2023-06-14T04:29:43;99666.37;;;15.31;84.06
42003;BME280;27693;50.506;30.832;2023-06-14T04:30:48;99661.69;;;15.36;83.56
42003;BME280;27693;50.506;30.832;2023-06-14T04:31:54;99668.39;;;15.40;83.31
42003;BME280;27693;50.506;30.832;2023-06-14T04:32:59;99662.32;;;15.40;83.07
42003;BME280;27693;50.506;30.832;2023-06-14T04:34:02;99665.58;;;15.43;83.01
42003;BME280;27693;50.506;30.832;2023-06-14T04:35:07;99660.53;;;15.40;82.98
42003;BME280;27693;50.506;30.832;2023-06-14T04:36:12;99660.30;;;15.30;83.52
42003;BME280;27693;50.506;30.832;2023-06-14T04:37:16;99655.70;;;15.34;84.02
42003;BME280;27693;50.506;30.832;2023-06-14T04:38:20;99668.27;;;15.29;83.56
42003;BME280;27693;50.506;30.832;2023-06-14T04:39:24;99666.59;;;15.28;83.78
42003;BME280;27693;50.506;30.832;2023-06-14T04:40:28;99660.08;;;15.21;84.00
42003;BME280;27693;50.506;30.832;2023-06-14T04:41:31;99662.36;;;15.12;84.21
42003;BME280;27693;50.506;30.832;2023-06-14T04:42:35;99663.33;;;15.24;84.35
42003;BME280;27693;50.506;30.832;2023-06-14T04:43:40;99655.80;;;15.32;83.92
42003;BME280;27693;50.506;30.832;2023-06-14T04:44:45;99660.53;;;15.40;83.87
42003;BME280;27693;50.506;30.832;2023-06-14T04:45:49;99653.81;;;15.49;83.63
42003;BME280;27693;50.506;30.832;2023-06-14T04:46:54;99652.38;;;15.58;83.25
42003;BME280;27693;50.506;30.832;2023-06-14T04:48:01;99654.98;;;15.71;83.15
42003;BME280;27693;50.506;30.832;2023-06-14T04:49:03;99651.54;;;15.70;82.12
42003;BME280;27693;50.506;30.832;2023-06-14T04:50:09;99649.63;;;15.72;82.21
42003;BME280;27693;50.506;30.832;2023-06-14T04:51:13;99647.42;;;15.66;82.15
42003;BME280;27693;50.506;30.832;2023-06-14T04:52:16;99647.23;;;15.69;81.66
42003;BME280;27693;50.506;30.832;2023-06-14T04:53:20;99644.81;;;15.66;81.43
42003;BME280;27693;50.506;30.832;2023-06-14T04:54:27;99654.67;;;15.75;81.23
42003;BME280;27693;50.506;30.832;2023-06-14T04:55:30;99650.05;;;15.66;80.74
42003;BME280;27693;50.506;30.832;2023-06-14T04:56:33;99642.41;;;15.63;81.09
42003;BME280;27693;50.506;30.832;2023-06-14T04:57:36;99645.78;;;15.65;81.23
42003;BME280;27693;50.506;30.832;2023-06-14T04:58:41;99645.78;;;15.65;80.97
42003;BME280;27693;50.506;30.832;2023-06-14T04:59:44;99648.78;;;15.59;80.63
42003;BME280;27693;50.506;30.832;2023-06-14T05:00:46;99653.53;;;15.67;81.55
42003;BME280;27693;50.506;30.832;2023-06-14T05:01:50;99648.17;;;15.68;80.74
42003;BME280;27693;50.506;30.832;2023-06-14T05:02:53;99656.55;;;15.73;80.62
42003;BME280;27693;50.506;30.832;2023-06-14T05:03:57;99657.81;;;15.80;80.33
42003;BME280;27693;50.506;30.832;2023-06-14T05:04:59;99655.42;;;15.90;80.48
42003;BME280;27693;50.506;30.832;2023-06-14T05:06:04;99653.66;;;15.91;79.82
42003;BME280;27693;50.506;30.832;2023-06-14T05:07:08;99660.48;;;15.93;80.00
42003;BME280;27693;50.506;30.832;2023-06-14T05:08:12;99653.86;;;15.88;79.47
42003;BME280;27693;50.506;30.832;2023-06-14T05:09:14;99662.47;;;15.90;79.74
42003;BME280;27693;50.506;30.832;2023-06-14T05:10:21;99658.91;;;15.91;80.05
42003;BME280;27693;50.506;30.832;2023-06-14T05:11:24;99659.62;;;15.93;79.03
42003;BME280;27693;50.506;30.832;2023-06-14T05:12:28;99657.22;;;15.90;78.78
42003;BME280;27693;50.506;30.832;2023-06-14T05:13:31;99654.17;;;15.96;78.84
42003;BME280;27693;50.506;30.832;2023-06-14T05:14:35;99653.86;;;16.01;78.18
42003;BME280;27693;50.506;30.832;2023-06-14T05:15:40;99656.38;;;15.89;78.82
42003;BME280;27693;50.506;30.832;2023-06-14T05:16:43;99657.97;;;15.92;78.10
42003;BME280;27693;50.506;30.832;2023-06-14T05:17:46;99656.80;;;15.96;78.16
42003;BME280;27693;50.506;30.832;2023-06-14T05:18:51;99660.67;;;16.03;78.58
42003;BME280;27693;50.506;30.832;2023-06-14T05:19:54;99663.07;;;16.06;78.29
42003;BME280;27693;50.506;30.832;2023-06-14T05:20:58;99670.42;;;16.14;78.26
42003;BME280;27693;50.506;30.832;2023-06-14T05:22:00;99665.06;;;16.16;78.37
42003;BME280;27693;50.506;30.832;2023-06-14T05:23:03;99659.50;;;16.07;78.38
42003;BME280;27693;50.506;30.832;2023-06-14T05:24:06;99664.75;;;16.07;79.34
42003;BME280;27693;50.506;30.832;2023-06-14T05:25:09;99660.55;;;16.18;79.03
42003;BME280;27693;50.506;30.832;2023-06-14T05:26:11;99663.48;;;16.26;78.47
42003;BME280;27693;50.506;30.832;2023-06-14T05:27:14;99659.48;;;16.33;78.80
42003;BME280;27693;50.506;30.832;2023-06-14T05:28:16;99663.53;;;16.50;79.02
42003;BME280;27693;50.506;30.832;2023-06-14T05:29:19;99665.14;;;16.64;78.91
42003;BME280;27693;50.506;30.832;2023-06-14T05:30:21;99669.51;;;16.76;78.72
42003;BME280;27693;50.506;30.832;2023-06-14T05:31:25;99675.55;;;16.90;78.50
42003;BME280;27693;50.506;30.832;2023-06-14T05:32:29;99674.70;;;17.02;77.88
42003;BME280;27693;50.506;30.832;2023-06-14T05:33:32;99666.85;;;17.14;77.75
42003;BME280;27693;50.506;30.832;2023-06-14T05:34:34;99674.03;;;17.23;76.89
42003;BME280;27693;50.506;30.832;2023-06-14T05:35:36;99670.00;;;17.30;76.10
42003;BME280;27693;50.506;30.832;2023-06-14T05:36:40;99673.61;;;17.29;75.41
42003;BME280;27693;50.506;30.832;2023-06-14T05:37:42;99673.48;;;17.31;75.14
42003;BME280;27693;50.506;30.832;2023-06-14T05:38:46;99678.41;;;17.35;74.99
42003;BME280;27693;50.506;30.832;2023-06-14T05:39:48;99674.89;;;17.23;74.06